createdAt,value
2023-06-29T00:02:01.528Z,7.68
2023-06-29T00:04:28.834Z,7.97
2023-06-29T00:06:56.135Z,7.53
2023-06-29T00:09:23.977Z,8.75
2023-06-29T00:11:51.633Z,7.82
2023-06-29T00:14:18.817Z,8.18
2023-06-29T00:16:46.118Z,7.97
2023-06-29T00:19:15.786Z,8.50
2023-06-29T00:21:43.535Z,7.63
2023-06-29T00:24:13.529Z,8.20
2023-06-29T00:26:40.737Z,8.30
2023-06-29T00:29:07.983Z,8.38
2023-06-29T00:31:36.547Z,7.97
2023-06-29T00:34:03.878Z,8.75
2023-06-29T00:36:33.429Z,8.95
2023-06-29T00:39:00.634Z,9.27
2023-06-29T00:41:27.873Z,8.82
2023-06-29T00:43:56.135Z,8.10
2023-06-29T00:46:25.435Z,8.70
2023-06-29T00:48:52.742Z,8.93
2023-06-29T00:51:21.010Z,8.77
2023-06-29T00:53:48.314Z,8.80
2023-06-29T00:56:15.601Z,9.15
2023-06-29T00:58:43.045Z,8.93
2023-06-29T01:01:10.325Z,8.63
2023-06-29T01:03:41.744Z,8.55
2023-06-29T01:06:13.787Z,9.20
2023-06-29T01:08:44.599Z,9.00
2023-06-29T01:11:12.370Z,8.77
2023-06-29T01:13:40.337Z,9.05
2023-06-29T01:16:08.319Z,9.40
2023-06-29T01:18:36.313Z,8.98
2023-06-29T01:21:04.330Z,8.88
2023-06-29T01:23:38.361Z,9.05
2023-06-29T01:26:09.678Z,8.65
2023-06-29T01:28:39.706Z,9.35
2023-06-29T01:31:10.772Z,8.93
2023-06-29T01:33:38.062Z,9.00
2023-06-29T01:36:12.889Z,8.90
2023-06-29T01:38:49.635Z,8.90
2023-06-29T01:41:17.925Z,9.38
2023-06-29T01:43:45.876Z,9.05
2023-06-29T01:46:15.773Z,9.65
2023-06-29T01:48:43.337Z,8.82
2023-06-29T01:51:14.710Z,9.13
2023-06-29T01:53:42.138Z,9.23
2023-06-29T01:56:09.336Z,10.23
2023-06-29T01:58:36.645Z,9.45
2023-06-29T02:01:03.946Z,9.52
2023-06-29T02:03:31.306Z,10.30
2023-06-29T02:05:58.545Z,9.45
2023-06-29T02:08:26.219Z,9.70
2023-06-29T02:10:53.546Z,9.18
2023-06-29T02:13:20.718Z,8.70
2023-06-29T02:15:47.919Z,10.32
2023-06-29T02:18:15.272Z,9.48
2023-06-29T02:20:42.600Z,9.30
2023-06-29T02:23:09.905Z,9.13
2023-06-29T02:25:37.264Z,9.93
2023-06-29T02:28:04.589Z,9.35
2023-06-29T02:30:31.827Z,9.63
2023-06-29T02:32:59.276Z,9.77
2023-06-29T02:35:26.656Z,9.82
2023-06-29T02:37:54.406Z,9.88
2023-06-29T02:40:21.702Z,9.82
2023-06-29T02:42:49.657Z,9.68
2023-06-29T02:45:17.233Z,9.32
2023-06-29T02:47:44.618Z,9.95
2023-06-29T02:50:11.999Z,10.43
2023-06-29T02:52:47.380Z,10.15
2023-06-29T02:55:14.994Z,10.18
2023-06-29T02:57:42.307Z,10.13
2023-06-29T03:00:10.275Z,10.93
2023-06-29T03:02:38.518Z,10.32
2023-06-29T03:05:06.077Z,10.13
2023-06-29T03:07:34.330Z,9.65
2023-06-29T03:10:02.666Z,10.48
2023-06-29T03:12:29.886Z,11.20
2023-06-29T03:14:57.128Z,11.55
2023-06-29T03:17:25.762Z,10.10
2023-06-29T03:19:53.212Z,9.80
2023-06-29T03:22:20.498Z,10.55
2023-06-29T03:24:47.676Z,10.57
2023-06-29T03:27:14.891Z,10.23
2023-06-29T03:29:42.203Z,10.23
2023-06-29T03:32:09.752Z,11.90
2023-06-29T03:34:37.320Z,10.77
2023-06-29T03:37:04.671Z,10.95
2023-06-29T03:39:31.863Z,10.05
2023-06-29T03:41:59.174Z,10.38
2023-06-29T03:44:26.464Z,10.25
2023-06-29T03:46:53.705Z,11.02
2023-06-29T03:49:20.910Z,10.75
2023-06-29T03:51:48.131Z,11.45
2023-06-29T03:54:15.354Z,10.73
2023-06-29T03:56:42.561Z,11.63
2023-06-29T03:59:09.707Z,10.32
2023-06-29T04:01:36.923Z,10.70
2023-06-29T04:04:04.329Z,11.35
2023-06-29T04:06:31.660Z,11.43
2023-06-29T04:08:58.883Z,11.30
2023-06-29T04:11:26.039Z,10.75
2023-06-29T04:13:53.202Z,11.18
2023-06-29T04:16:20.466Z,10.75
2023-06-29T04:18:47.626Z,11.13
2023-06-29T04:21:14.889Z,10.70
2023-06-29T04:23:42.177Z,10.75
2023-06-29T04:26:10.818Z,11.65
2023-06-29T04:28:38.258Z,10.68
2023-06-29T04:31:05.604Z,12.07
2023-06-29T04:33:32.858Z,10.73
2023-06-29T04:36:00.025Z,10.75
2023-06-29T04:38:28.936Z,11.75
2023-06-29T04:41:04.535Z,11.73
2023-06-29T04:43:32.384Z,11.65
2023-06-29T04:46:01.534Z,11.65
2023-06-29T04:48:38.425Z,12.02
2023-06-29T04:51:06.624Z,12.35
2023-06-29T04:53:34.675Z,12.30
2023-06-29T04:56:05.272Z,11.85
2023-06-29T04:58:33.011Z,11.70
2023-06-29T05:01:00.351Z,12.23
2023-06-29T05:03:28.258Z,11.82
2023-06-29T05:05:55.690Z,12.00
2023-06-29T05:08:23.039Z,10.93
2023-06-29T05:10:51.338Z,11.88
2023-06-29T05:13:18.643Z,11.68
2023-06-29T05:15:48.966Z,11.80
2023-06-29T05:18:16.962Z,12.38
2023-06-29T05:20:44.450Z,11.65
2023-06-29T05:23:12.779Z,12.70
2023-06-29T05:25:42.239Z,11.57
2023-06-29T05:28:10.068Z,11.73
2023-06-29T05:30:37.301Z,12.30
2023-06-29T05:33:05.332Z,11.88
2023-06-29T05:35:36.711Z,11.63
2023-06-29T05:38:04.344Z,11.95
2023-06-29T05:40:33.654Z,11.55
2023-06-29T05:43:01.310Z,12.27
2023-06-29T05:45:28.584Z,12.02
2023-06-29T05:47:56.764Z,11.45
2023-06-29T05:50:24.196Z,12.13
2023-06-29T05:52:51.685Z,12.68
2023-06-29T05:55:20.573Z,11.32
2023-06-29T05:57:47.932Z,11.05
2023-06-29T06:00:15.412Z,12.40
2023-06-29T06:02:46.314Z,12.15
2023-06-29T06:05:14.060Z,12.63
2023-06-29T06:07:41.204Z,12.40
2023-06-29T06:10:08.723Z,12.40
2023-06-29T06:12:35.943Z,13.13
2023-06-29T06:15:03.270Z,13.65
2023-06-29T06:17:30.679Z,13.38
2023-06-29T06:19:57.899Z,13.20
2023-06-29T06:22:25.181Z,13.88
2023-06-29T06:24:52.479Z,13.40
2023-06-29T06:27:19.799Z,12.38
2023-06-29T06:29:47.043Z,12.60
2023-06-29T06:32:14.446Z,12.85
2023-06-29T06:34:41.634Z,12.98
2023-06-29T06:37:09.558Z,12.88
2023-06-29T06:39:36.823Z,13.60
2023-06-29T06:42:04.265Z,13.00
2023-06-29T06:44:31.556Z,12.25
2023-06-29T06:46:58.944Z,11.98
2023-06-29T06:49:26.293Z,12.95
2023-06-29T06:51:53.546Z,13.52
2023-06-29T06:54:22.491Z,13.32
2023-06-29T06:56:50.056Z,12.73
2023-06-29T06:59:17.317Z,12.00
2023-06-29T07:01:44.974Z,12.88
2023-06-29T07:04:12.856Z,12.05
2023-06-29T07:06:40.059Z,12.95
2023-06-29T07:09:08.476Z,11.60
2023-06-29T07:11:36.743Z,12.75
2023-06-29T07:14:04.060Z,11.25
2023-06-29T07:16:31.490Z,11.52
2023-06-29T07:24:31.320Z,11.63
2023-06-29T07:26:58.520Z,12.90
2023-06-29T07:29:25.769Z,12.25
2023-06-29T07:31:53.180Z,11.95
2023-06-29T07:34:24.360Z,13.13
2023-06-29T07:36:51.854Z,13.70
2023-06-29T07:39:19.114Z,13.43
2023-06-29T07:41:46.362Z,13.57
2023-06-29T07:44:13.671Z,13.15
2023-06-29T07:46:40.800Z,13.93
2023-06-29T07:49:08.255Z,13.38
2023-06-29T07:51:35.782Z,11.85
2023-06-29T07:54:05.084Z,13.23
2023-06-29T07:59:03.599Z,12.30
2023-06-29T08:01:31.165Z,12.50
2023-06-29T08:04:02.965Z,12.90
2023-06-29T08:09:03.301Z,12.57
2023-06-29T08:11:30.991Z,13.50
2023-06-29T08:13:58.319Z,12.32
2023-06-29T08:16:25.797Z,12.80
2023-06-29T08:18:53.239Z,12.85
2023-06-29T08:21:20.622Z,14.30
2023-06-29T08:23:50.093Z,13.05
2023-06-29T08:26:17.541Z,13.90
2023-06-29T08:28:45.100Z,13.50
2023-06-29T08:31:13.720Z,14.00
2023-06-29T08:33:41.215Z,13.85
2023-06-29T08:36:08.589Z,14.93
2023-06-29T08:38:35.820Z,14.52
2023-06-29T08:41:05.812Z,14.25
2023-06-29T08:43:33.306Z,14.50
2023-06-29T08:46:00.684Z,14.18
2023-06-29T08:48:28.311Z,13.32
2023-06-29T08:51:03.889Z,14.77
2023-06-29T08:53:31.429Z,14.80
2023-06-29T08:56:00.102Z,14.18
2023-06-29T08:58:27.672Z,13.93
2023-06-29T09:00:55.676Z,13.68
2023-06-29T09:03:26.557Z,14.82
2023-06-29T09:05:55.758Z,15.18
2023-06-29T09:08:24.927Z,14.90
2023-06-29T09:10:52.281Z,15.27
2023-06-29T09:13:19.762Z,15.05
2023-06-29T09:15:47.196Z,14.27
2023-06-29T09:18:14.549Z,13.93
2023-06-29T09:20:42.981Z,14.85
2023-06-29T09:23:10.510Z,14.73
2023-06-29T09:25:40.105Z,14.52
2023-06-29T09:28:08.304Z,14.68
2023-06-29T09:30:40.192Z,15.65
2023-06-29T09:33:08.909Z,13.65
2023-06-29T09:35:36.499Z,14.10
2023-06-29T09:38:04.179Z,14.15
2023-06-29T09:40:31.640Z,14.73
2023-06-29T09:43:03.953Z,14.25
2023-06-29T09:45:32.383Z,14.52
2023-06-29T09:50:30.064Z,13.93
2023-06-29T09:52:58.064Z,13.75
2023-06-29T09:55:31.557Z,13.07
2023-06-29T09:57:59.267Z,12.38
2023-06-29T10:00:28.910Z,13.15
2023-06-29T10:02:56.571Z,12.40
2023-06-29T10:05:24.084Z,12.55
2023-06-29T10:07:54.624Z,11.70
2023-06-29T10:10:24.699Z,11.93
2023-06-29T10:12:56.559Z,12.18
2023-06-29T10:15:26.519Z,11.95
2023-06-29T10:18:13.245Z,13.82
2023-06-29T10:20:45.004Z,12.88
2023-06-29T10:23:15.727Z,13.35
2023-06-29T10:25:48.027Z,13.48
2023-06-29T10:28:16.055Z,13.57
2023-06-29T10:30:52.034Z,13.02
2023-06-29T10:33:23.604Z,12.63
2023-06-29T10:36:02.673Z,13.10
2023-06-29T10:38:36.703Z,12.98
2023-06-29T10:41:09.953Z,13.38
2023-06-29T10:43:59.570Z,12.00
2023-06-29T10:46:45.354Z,11.43
2023-06-29T10:49:29.817Z,11.45
2023-06-29T10:52:03.552Z,11.50
2023-06-29T10:54:31.168Z,12.07
2023-06-29T10:57:11.757Z,12.32
2023-06-29T10:59:40.751Z,13.15
2023-06-29T11:02:08.726Z,12.30
2023-06-29T11:04:36.128Z,12.57
2023-06-29T11:07:09.554Z,12.80
2023-06-29T11:09:37.441Z,11.55
2023-06-29T11:12:04.997Z,12.10
2023-06-29T11:14:38.599Z,12.15
2023-06-29T11:17:09.090Z,10.88
2023-06-29T11:19:36.314Z,11.90
2023-06-29T11:22:03.876Z,10.57
2023-06-29T11:24:31.829Z,12.30
2023-06-29T11:26:59.161Z,11.50
2023-06-29T11:29:29.306Z,12.05
2023-06-29T11:31:56.507Z,12.57
2023-06-29T11:34:23.744Z,12.52
2023-06-29T11:37:04.164Z,11.77
2023-06-29T11:39:38.754Z,12.60
2023-06-29T11:42:10.165Z,11.75
2023-06-29T11:44:37.556Z,12.50
2023-06-29T11:47:25.572Z,13.88
2023-06-29T11:49:52.307Z,12.18
2023-06-29T11:52:19.652Z,12.75
2023-06-29T11:54:48.065Z,12.70
2023-06-29T11:57:21.529Z,12.32
2023-06-29T11:59:48.927Z,12.20
2023-06-29T12:02:16.324Z,11.63
2023-06-29T12:05:00.122Z,11.65
2023-06-29T12:07:41.102Z,12.63
2023-06-29T12:10:10.609Z,11.82
2023-06-29T12:12:38.444Z,11.48
2023-06-29T12:15:22.423Z,12.38
2023-06-29T12:20:25.498Z,12.43
2023-06-29T12:22:54.632Z,12.43
2023-06-29T12:25:22.647Z,12.00
2023-06-29T12:27:51.185Z,12.02
2023-06-29T12:30:22.320Z,11.15
2023-06-29T12:32:50.741Z,12.05
2023-06-29T12:35:18.886Z,11.80
2023-06-29T12:37:46.448Z,12.10
2023-06-29T12:40:16.013Z,12.00
2023-06-29T12:42:43.235Z,11.35
2023-06-29T12:45:10.642Z,11.40
2023-06-29T12:47:39.068Z,10.50
2023-06-29T12:50:06.824Z,10.43
2023-06-29T12:52:34.174Z,10.63
2023-06-29T12:55:01.348Z,11.25
2023-06-29T12:57:30.050Z,9.68
2023-06-29T12:59:58.146Z,8.23
2023-06-29T13:02:25.947Z,8.45
2023-06-29T13:04:53.322Z,9.05
2023-06-29T13:07:23.600Z,9.30
2023-06-29T13:09:52.963Z,9.23
2023-06-29T13:12:22.807Z,9.07
2023-06-29T13:14:51.699Z,9.20
2023-06-29T13:17:19.715Z,10.15
2023-06-29T13:19:47.640Z,9.75
2023-06-29T13:22:14.867Z,10.27
2023-06-29T13:24:42.210Z,9.55
2023-06-29T13:27:09.496Z,10.13
2023-06-29T13:29:37.085Z,9.77
2023-06-29T13:32:04.314Z,8.63
2023-06-29T13:34:34.804Z,10.23
2023-06-29T13:37:02.455Z,9.30
2023-06-29T13:39:30.659Z,8.70
2023-06-29T13:41:57.825Z,10.27
2023-06-29T13:44:25.058Z,9.25
2023-06-29T13:46:52.339Z,9.35
2023-06-29T13:49:19.761Z,8.90
2023-06-29T13:51:49.276Z,9.23
2023-06-29T13:54:16.842Z,10.00
2023-06-29T13:56:44.527Z,10.05
2023-06-29T13:59:12.175Z,10.02
2023-06-29T14:01:40.611Z,9.88
2023-06-29T14:04:09.368Z,9.82
2023-06-29T14:06:42.270Z,10.27
2023-06-29T14:09:10.566Z,9.57
2023-06-29T14:11:37.985Z,10.13
2023-06-29T14:14:05.416Z,9.75
2023-06-29T14:16:32.859Z,9.73
2023-06-29T14:19:01.220Z,9.13
2023-06-29T14:21:28.721Z,8.75
2023-06-29T14:23:56.405Z,8.38
2023-06-29T14:26:23.790Z,9.35
2023-06-29T14:28:51.117Z,8.95
2023-06-29T14:31:18.741Z,9.10
2023-06-29T14:33:46.606Z,9.10
2023-06-29T14:36:14.234Z,8.65
2023-06-29T14:38:41.724Z,8.80
2023-06-29T14:41:09.156Z,8.77
2023-06-29T14:43:36.437Z,9.00
2023-06-29T14:46:03.691Z,9.65
2023-06-29T14:48:30.999Z,10.13
2023-06-29T14:50:58.264Z,10.00
2023-06-29T14:53:25.547Z,10.48
2023-06-29T14:56:05.144Z,9.30
2023-06-29T14:58:32.457Z,10.65
2023-06-29T15:00:59.872Z,10.13
2023-06-29T15:03:27.262Z,10.20
2023-06-29T15:05:54.594Z,11.57
2023-06-29T15:08:21.828Z,10.75
2023-06-29T15:10:49.056Z,10.77
2023-06-29T15:13:16.336Z,11.00
2023-06-29T15:15:45.368Z,9.25
2023-06-29T15:18:13.114Z,9.30
2023-06-29T15:20:40.404Z,8.60
2023-06-29T15:23:07.667Z,7.75
2023-06-29T15:25:35.711Z,7.05
2023-06-29T15:28:04.407Z,6.93
2023-06-29T15:30:33.234Z,5.82
2023-06-29T15:33:06.195Z,5.50
2023-06-29T15:35:33.925Z,5.35
2023-06-29T15:38:01.374Z,4.55
2023-06-29T15:40:28.699Z,4.50
2023-06-29T15:42:55.893Z,4.13
2023-06-29T15:45:23.186Z,3.65
2023-06-29T15:47:50.586Z,3.03
2023-06-29T15:50:17.879Z,2.90
2023-06-29T15:52:45.253Z,3.00
2023-06-29T15:55:12.832Z,2.67
2023-06-29T15:57:40.224Z,2.33
2023-06-29T16:00:07.827Z,2.58
2023-06-29T16:02:40.915Z,2.25
2023-06-29T16:05:08.357Z,2.20
2023-06-29T16:07:38.261Z,2.20
2023-06-29T16:10:06.115Z,2.15
2023-06-29T16:12:33.626Z,2.22
2023-06-29T16:15:01.974Z,1.75
2023-06-29T16:17:29.862Z,1.20
2023-06-29T16:19:57.612Z,1.30
2023-06-29T16:22:24.926Z,1.20
2023-06-29T16:24:52.406Z,1.30
2023-06-29T16:27:19.662Z,1.20
2023-06-29T16:29:46.906Z,1.30
2023-06-29T16:32:14.223Z,1.25
2023-06-29T16:34:41.518Z,1.20
2023-06-29T16:37:10.343Z,3.40
2023-06-29T16:39:37.918Z,2.80
2023-06-29T16:42:05.438Z,0.93
2023-06-29T16:44:32.707Z,0.80
2023-06-29T16:46:59.937Z,0.95
2023-06-29T16:49:27.396Z,2.90
2023-06-29T16:51:55.836Z,0.90
2023-06-29T16:54:23.267Z,0.80
2023-06-29T16:56:50.492Z,0.80
2023-06-29T16:59:17.729Z,1.00
2023-06-29T17:01:45.102Z,0.73
2023-06-29T17:04:12.523Z,0.80
2023-06-29T17:06:39.872Z,0.68
2023-06-29T17:09:07.293Z,1.00
2023-06-29T17:11:34.500Z,0.90
2023-06-29T17:14:01.910Z,0.90
2023-06-29T17:16:29.366Z,0.90
2023-06-29T17:18:56.713Z,0.93
2023-06-29T17:21:24.089Z,1.00
2023-06-29T17:23:53.828Z,0.90
2023-06-29T17:26:22.354Z,0.90
2023-06-29T17:28:49.637Z,1.20
2023-06-29T17:31:16.927Z,1.00
2023-06-29T17:33:54.055Z,0.82
2023-06-29T17:36:22.663Z,0.95
2023-06-29T17:38:49.890Z,0.90
2023-06-29T17:41:17.176Z,1.00
2023-06-29T17:43:44.427Z,1.00
2023-06-29T17:46:11.881Z,1.10
2023-06-29T17:48:39.190Z,1.13
2023-06-29T17:51:16.268Z,1.08
2023-06-29T17:53:46.637Z,1.10
2023-06-29T17:56:16.003Z,1.20
2023-06-29T17:58:46.962Z,1.05
2023-06-29T18:01:14.375Z,1.25
2023-06-29T18:03:42.325Z,1.50
2023-06-29T18:06:09.913Z,1.23
2023-06-29T18:08:37.184Z,1.48
2023-06-29T18:11:04.624Z,1.65
2023-06-29T18:13:31.849Z,1.50
2023-06-29T18:15:59.285Z,1.77
2023-06-29T18:18:26.566Z,1.27
2023-06-29T18:20:53.831Z,1.38
2023-06-29T18:23:21.000Z,1.27
2023-06-29T18:25:48.427Z,1.30
2023-06-29T18:28:15.912Z,1.45
2023-06-29T18:30:43.193Z,1.70
2023-06-29T18:33:10.435Z,1.80
2023-06-29T18:35:37.772Z,1.48
2023-06-29T18:38:04.981Z,1.52
2023-06-29T18:40:32.195Z,1.30
2023-06-29T18:42:59.536Z,1.30
2023-06-29T18:45:29.989Z,1.63
2023-06-29T18:47:57.820Z,1.17
2023-06-29T18:50:25.222Z,1.20
2023-06-29T18:52:54.005Z,1.30
2023-06-29T18:55:21.207Z,1.33
2023-06-29T18:57:48.379Z,1.25
2023-06-29T19:00:15.761Z,1.40
2023-06-29T19:02:43.251Z,1.27
2023-06-29T19:05:11.270Z,1.20
2023-06-29T19:07:38.615Z,1.40
2023-06-29T19:10:05.968Z,1.33
2023-06-29T19:12:33.431Z,1.30
2023-06-29T19:15:00.808Z,1.23
2023-06-29T19:17:29.247Z,1.38
2023-06-29T19:19:56.616Z,1.52
2023-06-29T19:22:23.858Z,1.10
2023-06-29T19:24:51.146Z,1.35
2023-06-29T19:27:18.573Z,1.00
2023-06-29T19:29:45.991Z,1.38
2023-06-29T19:32:13.275Z,1.23
2023-06-29T19:34:40.530Z,1.40
2023-06-29T19:37:07.686Z,1.30
2023-06-29T19:39:34.937Z,1.20
2023-06-29T19:42:03.500Z,1.27
2023-06-29T19:44:31.042Z,1.48
2023-06-29T19:46:58.286Z,1.50
2023-06-29T19:49:26.268Z,1.50
2023-06-29T19:51:58.339Z,1.52
2023-06-29T19:54:25.902Z,1.40
2023-06-29T19:56:53.257Z,1.52
2023-06-29T19:59:20.621Z,1.45
2023-06-29T20:01:47.929Z,1.17
2023-06-29T20:04:15.393Z,1.40
2023-06-29T20:06:42.891Z,1.58
2023-06-29T20:09:10.139Z,1.95
2023-06-29T20:11:37.410Z,1.67
2023-06-29T20:14:04.718Z,1.83
2023-06-29T20:16:32.005Z,1.58
2023-06-29T20:18:59.280Z,1.92
2023-06-29T20:21:26.489Z,1.90
2023-06-29T20:23:53.842Z,1.80
2023-06-29T20:26:21.251Z,1.80
2023-06-29T20:28:48.396Z,1.88
2023-06-29T20:31:15.612Z,2.08
2023-06-29T20:33:42.940Z,1.95
2023-06-29T20:36:10.264Z,1.80
2023-06-29T20:38:37.617Z,2.08
2023-06-29T20:41:04.930Z,2.17
2023-06-29T20:43:34.381Z,1.88
2023-06-29T20:46:01.845Z,1.83
2023-06-29T20:48:29.476Z,1.73
2023-06-29T20:51:07.596Z,1.88
2023-06-29T20:53:45.135Z,1.80
2023-06-29T20:56:12.440Z,2.05
2023-06-29T20:58:39.785Z,1.52
2023-06-29T21:01:07.348Z,1.60
2023-06-29T21:03:34.977Z,1.60
2023-06-29T21:06:02.501Z,1.70
2023-06-29T21:08:30.350Z,1.60
2023-06-29T21:10:57.628Z,1.63
2023-06-29T21:13:25.175Z,1.85
2023-06-29T21:15:52.686Z,1.67
2023-06-29T21:18:20.051Z,1.83
2023-06-29T21:20:47.408Z,1.70
2023-06-29T21:23:14.860Z,1.50
2023-06-29T21:25:42.263Z,1.77
2023-06-29T21:28:11.942Z,1.48
2023-06-29T21:30:39.446Z,1.90
2023-06-29T21:33:07.020Z,1.40
2023-06-29T21:35:35.471Z,1.60
2023-06-29T21:38:02.933Z,1.48
2023-06-29T21:40:30.245Z,1.70
2023-06-29T21:42:57.479Z,1.98
2023-06-29T21:45:27.848Z,1.63
2023-06-29T21:47:55.569Z,1.90
2023-06-29T21:50:22.983Z,1.60
2023-06-29T21:52:50.268Z,1.90
2023-06-29T21:55:18.649Z,1.70
2023-06-29T21:57:45.960Z,1.77
2023-06-29T22:00:13.868Z,1.70
2023-06-29T22:02:44.807Z,1.48
2023-06-29T22:05:13.820Z,1.70
2023-06-29T22:07:41.608Z,1.65
2023-06-29T22:10:09.562Z,1.80
2023-06-29T22:12:42.394Z,1.50
2023-06-29T22:15:11.939Z,1.60
2023-06-29T22:17:39.379Z,1.88
2023-06-29T22:20:13.789Z,1.80
2023-06-29T22:22:41.268Z,2.17
2023-06-29T22:25:08.635Z,2.08
2023-06-29T22:27:36.259Z,1.95
2023-06-29T22:30:03.703Z,2.05
2023-06-29T22:32:31.324Z,1.95
2023-06-29T22:34:59.033Z,2.00
2023-06-29T22:37:26.290Z,1.55
2023-06-29T22:39:54.155Z,2.10
2023-06-29T22:42:21.388Z,1.88
2023-06-29T22:44:48.654Z,1.52
2023-06-29T22:47:15.889Z,2.00
2023-06-29T22:49:43.520Z,1.80
2023-06-29T22:52:11.004Z,2.15
2023-06-29T22:54:38.290Z,2.20
2023-06-29T22:57:05.567Z,1.80
2023-06-29T22:59:32.842Z,1.80
2023-06-29T23:02:00.013Z,2.42
2023-06-29T23:04:27.272Z,2.00
2023-06-29T23:06:54.757Z,2.10
2023-06-29T23:09:22.387Z,1.58
2023-06-29T23:11:50.630Z,2.08
2023-06-29T23:14:18.737Z,1.90
2023-06-29T23:16:47.344Z,1.63
2023-06-29T23:19:15.518Z,1.88
2023-06-29T23:21:42.819Z,1.92
2023-06-29T23:24:15.051Z,2.08
2023-06-29T23:26:42.626Z,1.90
2023-06-29T23:29:10.679Z,1.90
2023-06-29T23:31:37.940Z,2.13
2023-06-29T23:34:05.087Z,2.22
2023-06-29T23:36:32.303Z,2.80
2023-06-29T23:38:59.772Z,2.10
2023-06-29T23:41:30.765Z,2.30
2023-06-29T23:44:05.543Z,2.03
2023-06-29T23:46:41.656Z,2.15
2023-06-29T23:49:09.943Z,2.30
2023-06-29T23:51:37.620Z,2.45
2023-06-29T23:54:06.395Z,2.17
2023-06-29T23:56:33.858Z,2.22
2023-06-29T23:59:02.327Z,2.20
